FW9118 Weather Reports


Display with metric or nautical units.
time (UTC)temp
F
wind
direction
speed
MPH
gust
MPH
rain 1hr
in
rain 24hr
in
rain mn
in
humidity
%
barometer
mb
20220705114603 73 182 4.0 8.0 0.00 0.00 0.00 87 1018.4
20220705113118 73 178 3.0 10.0 0.00 0.00 0.00 86 1018.4
20220705111612 73 168 3.0 9.0 0.00 0.00 0.00 86 1018.4
20220705110112 73 132 2.0 6.0 0.00 0.00 0.00 86 1018.5
20220705104605 73 180 3.0 7.0 0.00 0.00 0.00 86 1018.4
20220705103109 73 173 2.0 7.0 0.00 0.00 0.00 84 1018.3
20220705101606 74 218 3.0 10.0 0.00 0.00 0.00 83 1018.3
20220705100107 74 174 5.0 12.0 0.00 0.00 0.00 81 1018.2
20220705094607 75 180 5.0 19.0 0.00 0.00 0.00 80 1018.3
20220705093108 75 178 4.0 10.0 0.00 0.00 0.00 80 1018.2
20220705091611 75 144 3.0 11.0 0.00 0.00 0.00 81 1018.1
20220705090110 75 120 4.0 11.0 0.00 0.00 0.00 81 1018.2
20220705084607 76 167 3.0 9.0 0.00 0.00 0.00 82 1018.1
20220705083110 76 146 5.0 9.0 0.00 0.00 0.00 82 1018.2
20220705081601 76 180 4.0 12.0 0.00 0.00 0.00 82 1018.2
20220705080104 77 146 3.0 8.0 0.00 0.00 0.00 81 1018.3
20220705074611 77 173 4.0 9.0 0.00 0.00 0.00 80 1018.4
20220705073108 77 140 5.0 10.0 0.00 0.00 0.00 79 1018.4
20220705071609 78 161 2.0 10.0 0.00 0.00 0.00 77 1018.7
20220705070108 78 173 4.0 13.0 0.00 0.00 0.00 76 1018.6
20220705064605 79 154 6.0 12.0 0.00 0.00 0.00 75 1018.7
20220705063109 79 175 4.0 11.0 0.00 0.00 0.00 76 1018.7
20220705061605 79 175 5.0 12.0 0.00 0.00 0.00 75 1018.8
20220705060108 80 165 3.0 11.0 0.00 0.00 0.00 74 1018.8
20220705054606 80 171 4.0 12.0 0.00 0.00 0.00 73 1018.7
20220705053105 81 159 4.0 10.0 0.00 0.00 0.00 72 1018.8
20220705051611 81 151 3.0 10.0 0.00 0.00 0.00 70 1018.8
20220705050111 82 166 6.0 14.0 0.00 0.00 0.00 68 1018.8
20220705044604 82 136 5.0 14.0 0.00 0.00 0.00 67 1018.7
20220705043106 83 142 3.0 16.0 0.00 0.00 0.00 65 1018.6
20220705041611 84 175 4.0 13.0 0.00 0.00 0.00 63 1018.3
20220705040120 85 270 5.0 13.0 0.00 0.00 0.00 59 1018.1
20220705034606 86 94 5.0 13.0 0.00 0.00 0.00 55 1017.7
20220705033106 86 107 5.0 11.0 0.00 0.00 0.00 54 1017.6
20220705031606 87 116 4.0 9.0 0.00 0.00 0.00 53 1017.3
20220705030111 87 134 2.0 8.0 0.00 0.00 0.00 51 1017.1
20220705024610 87 158 1.0 6.0 0.00 0.00 0.00 49 1016.8
20220705023111 88 92 2.0 6.0 0.00 0.00 0.00 46 1016.4
20220705021614 88 105 1.0 6.0 0.00 0.00 0.00 45 1016.1
20220705020113 89 182 2.0 8.0 0.00 0.00 0.00 44 1016.2
20220705014614 90 140 3.0 9.0 0.00 0.00 0.00 43 1016.0
20220705013107 90 163 3.0 10.0 0.00 0.00 0.00 42 1016.1
20220705011624 91 102 2.0 10.0 0.00 0.00 0.00 40 1016.0
20220705010110 92 219 5.0 12.0 0.00 0.00 0.00 40 1016.0
20220705004609 92 146 6.0 11.0 0.00 0.00 0.00 40 1015.9
20220705003117 93 164 5.0 16.0 0.00 0.00 0.00 38 1015.8
20220705001609 93 198 2.0 15.0 0.00 0.00 0.00 39 1015.6
20220705000105 94 145 4.0 13.0 0.00 0.00 0.00 38 1015.7
20220704234614 94 169 6.0 14.0 0.00 0.00 0.00 37 1015.7
20220704233104 95 146 2.0 12.0 0.00 0.00 0.00 38 1015.7
20220704231605 93 195 6.0 14.0 0.00 0.00 0.00 39 1015.8
20220704230111 96 188 5.0 13.0 0.00 0.00 0.00 36 1015.9
20220704224613 95 167 4.0 13.0 0.00 0.00 0.00 37 1016.2
20220704223107 95 150 6.0 14.0 0.00 0.00 0.00 37 1016.3
20220704221614 96 135 5.0 16.0 0.00 0.00 0.00 37 1016.4
20220704220111 95 136 5.0 12.0 0.00 0.00 0.00 38 1016.6
20220704214613 95 234 8.0 17.0 0.00 0.00 0.00 38 1016.8
20220704213113 94 99 5.0 15.0 0.00 0.00 0.00 38 1016.6
20220704211613 95 201 5.0 17.0 0.00 0.00 0.00 37 1017.0
20220704210113 96 107 5.0 15.0 0.00 0.00 0.00 38 1017.2
20220704204608 94 133 6.0 13.0 0.00 0.00 0.00 39 1017.3
20220704203108 95 237 6.0 16.0 0.00 0.00 0.00 38 1017.4
20220704201610 94 163 7.0 14.0 0.00 0.00 0.00 38 1017.6
20220704200106 93 174 6.0 13.0 0.00 0.00 0.00 41 1018.0
20220704194609 94 183 5.0 12.0 0.00 0.00 0.00 40 1018.1
20220704193107 94 111 6.0 18.0 0.00 0.00 0.00 42 1018.3
20220704191606 92 123 5.0 12.0 0.00 0.00 0.00 44 1018.5
20220704190110 93 169 4.0 17.0 0.00 0.00 0.00 46 1018.8
20220704184602 92 155 6.0 15.0 0.00 0.00 0.00 46 1019.0
20220704183105 90 158 7.0 14.0 0.00 0.00 0.00 47 1019.1
20220704181607 89 180 7.0 17.0 0.00 0.00 0.00 50 1019.3
20220704180108 90 259 5.0 13.0 0.00 0.00 0.00 49 1019.3
20220704174604 89 154 6.0 16.0 0.00 0.00 0.00 50 1019.5
20220704173112 89 186 6.0 13.0 0.00 0.00 0.00 51 1019.6
20220704171608 89 242 4.0 13.0 0.00 0.00 0.00 52 1019.6
20220704170115 87 212 4.0 14.0 0.00 0.00 0.00 54 1019.5
20220704164613 85 220 8.0 15.0 0.00 0.00 0.00 56 1019.6
20220704163113 85 140 7.0 17.0 0.00 0.00 0.00 57 1019.7
20220704161610 84 165 7.0 17.0 0.00 0.00 0.00 56 1019.5
20220704160112 84 238 7.0 16.0 0.00 0.00 0.00 57 1019.6
20220704154606 83 194 5.0 15.0 0.00 0.00 0.00 62 1019.7
20220704153112 82 180 5.0 14.0 0.00 0.00 0.00 62 1019.5
20220704151611 82 163 6.0 15.0 0.00 0.00 0.00 63 1019.7
20220704150112 81 157 4.0 15.0 0.00 0.00 0.00 65 1019.8
20220704144611 81 179 4.0 10.0 0.00 0.00 0.00 66 1019.8
20220704143112 79 181 6.0 14.0 0.00 0.00 0.00 70 1019.6
20220704141611 77 173 4.0 11.0 0.00 0.00 0.00 73 1019.6
20220704140111 78 192 4.0 14.0 0.00 0.00 0.00 75 1019.4
20220704134612 77 194 6.0 13.0 0.00 0.00 0.00 76 1019.2
20220704133109 76 100 8.0 15.0 0.00 0.00 0.00 79 1019.0
20220704131611 75 126 5.0 14.0 0.00 0.00 0.00 81 1018.9
20220704130106 74 173 4.0 11.0 0.00 0.00 0.00 84 1019.0
20220704124606 73 186 4.0 8.0 0.00 0.00 0.00 86 1019.0
20220704123133 72 0 2.0 6.0 0.00 0.00 0.00 86 1018.8
20220704121610 72 170 2.0 9.0 0.00 0.00 0.00 87 1018.6
20220704120111 72 184 1.0 8.0 0.00 0.00 0.00 87 1018.6